Time,TemperatureF,DewpointF,PressureIn,WindDirection,WindDirectionDegrees,WindSpeedMPH,WindSpeedGustMPH,Humidity,HourlyPrecipIn,Conditions,Clouds,dailyrainin,SoftwareType,DateUTC
2013-02-10 00:01:00,40.0,27.0,30.29,North,-999,0.0,0.0,59,0.00,,,-99.99,,2013-02-10 08:01:00,
2013-02-10 00:11:00,40.0,27.0,30.29,North,-999,0.0,0.0,59,0.00,,,-99.99,,2013-02-10 08:11:00,
2013-02-10 00:21:00,40.0,27.0,30.29,North,-999,0.0,0.0,59,0.00,,,-99.99,,2013-02-10 08:21:00,
2013-02-10 00:31:00,40.0,26.0,30.29,North,-999,0.0,0.0,57,0.00,,,-99.99,,2013-02-10 08:31:00,
2013-02-10 00:43:00,40.0,26.0,30.29,North,-999,0.0,0.0,57,0.00,,,-99.99,,2013-02-10 08:43:00,
2013-02-10 00:52:00,40.0,26.0,30.29,North,-999,0.0,0.0,57,0.00,,,-99.99,,2013-02-10 08:52:00,
2013-02-10 01:02:00,40.0,27.0,30.29,North,-999,0.0,0.0,60,0.00,,,-99.99,,2013-02-10 09:02:00,
2013-02-10 01:21:00,40.0,27.0,30.28,North,-999,0.0,0.0,60,0.00,,,-99.99,,2013-02-10 09:21:00,
2013-02-10 01:31:00,40.0,30.0,30.28,North,-999,0.0,0.0,67,0.00,,,-99.99,,2013-02-10 09:31:00,
2013-02-10 01:41:00,40.0,30.0,30.28,North,-999,0.0,0.0,67,0.00,,,-99.99,,2013-02-10 09:41:00,
2013-02-10 01:51:00,40.0,30.0,30.28,North,-999,0.0,0.0,67,0.00,,,-99.99,,2013-02-10 09:51:00,
2013-02-10 02:01:00,39.0,31.0,30.28,North,-999,0.0,0.0,74,0.00,,,-99.99,,2013-02-10 10:01:00,
2013-02-10 02:11:00,39.0,31.0,30.28,North,-999,0.0,0.0,74,0.00,,,-99.99,,2013-02-10 10:11:00,
2013-02-10 02:21:00,38.0,32.0,30.27,North,0,0.0,2.0,79,0.00,,,-99.99,,2013-02-10 10:21:00,
2013-02-10 02:31:00,38.0,33.0,30.27,North,-999,0.0,0.0,81,0.00,,,-99.99,,2013-02-10 10:31:00,
2013-02-10 02:41:00,38.0,33.0,30.26,North,0,0.0,1.0,81,0.00,,,-99.99,,2013-02-10 10:41:00,
2013-02-10 02:51:00,38.0,33.0,30.26,North,0,0.0,1.0,81,0.00,,,-99.99,,2013-02-10 10:51:00,
2013-02-10 03:01:00,37.0,32.0,30.26,North,-999,0.0,0.0,81,0.00,,,-99.99,,2013-02-10 11:01:00,
2013-02-10 03:11:00,37.0,32.0,30.26,North,-999,0.0,0.0,81,0.00,,,-99.99,,2013-02-10 11:11:00,
2013-02-10 03:21:00,37.0,32.0,30.26,North,-999,0.0,0.0,81,0.00,,,-99.99,,2013-02-10 11:21:00,
2013-02-10 03:32:00,37.0,33.0,30.25,North,-999,0.0,0.0,84,0.00,,,-99.99,,2013-02-10 11:32:00,
2013-02-10 03:42:00,37.0,33.0,30.25,North,-999,0.0,0.0,84,0.00,,,-99.99,,2013-02-10 11:42:00,
2013-02-10 03:52:00,37.0,33.0,30.25,North,-999,0.0,0.0,84,0.00,,,-99.99,,2013-02-10 11:52:00,
2013-02-10 04:01:00,37.0,34.0,30.24,North,-999,0.0,0.0,88,0.00,,,-99.99,,2013-02-10 12:01:00,
2013-02-10 04:12:00,37.0,34.0,30.24,North,0,0.0,1.0,89,0.00,,,-99.99,,2013-02-10 12:12:00,
2013-02-10 04:21:00,37.0,34.0,30.24,North,0,0.0,1.0,89,0.00,,,-99.99,,2013-02-10 12:21:00,
2013-02-10 04:31:00,37.0,34.0,30.24,North,-999,0.0,0.0,89,0.00,,,-99.99,,2013-02-10 12:31:00,
2013-02-10 04:32:00,37.0,34.0,30.25,North,-999,0.0,0.0,89,0.00,,,-99.99,,2013-02-10 12:32:00,
2013-02-10 04:41:00,37.0,34.0,30.24,North,-999,0.0,0.0,89,0.00,,,-99.99,,2013-02-10 12:41:00,
2013-02-10 04:52:00,37.0,34.0,30.24,North,-999,0.0,0.0,89,0.00,,,-99.99,,2013-02-10 12:52:00,
2013-02-10 05:02:00,37.0,34.0,30.24,North,-999,0.0,0.0,89,0.00,,,-99.99,,2013-02-10 13:02:00,
2013-02-10 05:11:00,37.0,34.0,30.24,North,-999,0.0,0.0,89,0.00,,,-99.99,,2013-02-10 13:11:00,
2013-02-10 05:21:00,37.0,34.0,30.24,North,-999,0.0,0.0,89,0.00,,,-99.99,,2013-02-10 13:21:00,
2013-02-10 06:02:00,37.0,34.0,30.24,North,-999,0.0,0.0,90,0.00,,,-99.99,,2013-02-10 14:02:00,
2013-02-10 06:11:00,37.0,34.0,30.24,North,-999,0.0,0.0,90,0.00,,,-99.99,,2013-02-10 14:11:00,
2013-02-10 06:21:00,37.0,34.0,30.24,North,-999,0.0,0.0,90,0.00,,,-99.99,,2013-02-10 14:21:00,
2013-02-10 07:01:00,37.0,35.0,30.24,North,-999,0.0,0.0,92,0.00,,,-99.99,,2013-02-10 15:01:00,
2013-02-10 07:31:00,37.0,35.0,30.25,North,-999,0.0,0.0,91,0.00,,,-99.99,,2013-02-10 15:31:00,
2013-02-10 07:42:00,37.0,35.0,30.25,North,-999,0.0,0.0,91,0.00,,,-99.99,,2013-02-10 15:42:00,
2013-02-10 07:52:00,37.0,35.0,30.25,North,-999,0.0,0.0,91,0.00,,,-99.99,,2013-02-10 15:52:00,
2013-02-10 08:01:00,38.0,36.0,30.25,North,-999,0.0,0.0,91,0.00,,,-99.99,,2013-02-10 16:01:00,
2013-02-10 08:42:00,39.0,36.0,30.26,North,-999,0.0,0.0,90,0.00,,,-99.99,,2013-02-10 16:42:00,
2013-02-10 08:52:00,39.0,36.0,30.26,North,-999,0.0,0.0,90,0.00,,,-99.99,,2013-02-10 16:52:00,
2013-02-10 09:01:00,40.0,37.0,30.27,North,-999,0.0,0.0,89,0.00,,,-99.99,,2013-02-10 17:01:00,
2013-02-10 09:11:00,40.0,37.0,30.27,North,-999,0.0,0.0,89,0.00,,,-99.99,,2013-02-10 17:11:00,
2013-02-10 09:21:00,40.0,37.0,30.27,North,-999,0.0,0.0,89,0.00,,,-99.99,,2013-02-10 17:21:00,
2013-02-10 09:32:00,42.0,37.0,30.27,North,0,0.0,1.0,83,0.00,,,-99.99,,2013-02-10 17:32:00,
2013-02-10 09:42:00,42.0,37.0,30.27,North,0,0.0,4.0,82,0.00,,,-99.99,,2013-02-10 17:42:00,
2013-02-10 09:52:00,42.0,37.0,30.27,North,0,0.0,4.0,82,0.00,,,-99.99,,2013-02-10 17:52:00,
2013-02-10 10:01:00,42.0,36.0,30.26,North,0,0.0,3.0,79,0.00,,,-99.99,,2013-02-10 18:01:00,
2013-02-10 10:11:00,42.0,36.0,30.26,North,0,0.0,3.0,79,0.00,,,-99.99,,2013-02-10 18:11:00,
2013-02-10 10:21:00,42.0,36.0,30.26,North,0,0.0,3.0,79,0.00,,,-99.99,,2013-02-10 18:21:00,
2013-02-10 10:31:00,42.0,36.0,30.26,North,-999,0.0,0.0,78,0.00,,,-99.99,,2013-02-10 18:31:00,
2013-02-10 10:42:00,42.0,36.0,30.26,North,-999,0.0,0.0,78,0.00,,,-99.99,,2013-02-10 18:42:00,
2013-02-10 10:52:00,42.0,36.0,30.26,North,-999,0.0,0.0,78,0.00,,,-99.99,,2013-02-10 18:52:00,
2013-02-10 11:01:00,42.0,36.0,30.26,North,0,0.0,1.0,80,0.00,,,-99.99,,2013-02-10 19:01:00,
2013-02-10 11:11:00,42.0,36.0,30.26,North,0,0.0,1.0,80,0.00,,,-99.99,,2013-02-10 19:11:00,
2013-02-10 11:21:00,42.0,36.0,30.26,North,0,0.0,1.0,80,0.00,,,-99.99,,2013-02-10 19:21:00,
2013-02-10 11:32:00,43.0,37.0,30.26,West,270,3.0,3.0,78,0.00,,,-99.99,,2013-02-10 19:32:00,
2013-02-10 11:42:00,43.0,37.0,30.26,West,270,3.0,3.0,78,0.00,,,-99.99,,2013-02-10 19:42:00,
2013-02-10 11:52:00,43.0,37.0,30.26,West,270,3.0,3.0,78,0.00,,,-99.99,,2013-02-10 19:52:00,
2013-02-10 12:01:00,43.0,37.0,30.25,North,0,0.0,1.0,79,0.00,,,-99.99,,2013-02-10 20:01:00,
2013-02-10 12:11:00,43.0,37.0,30.25,North,0,0.0,1.0,79,0.00,,,-99.99,,2013-02-10 20:11:00,
2013-02-10 12:21:00,43.0,37.0,30.25,North,0,0.0,1.0,79,0.00,,,-99.99,,2013-02-10 20:21:00,
2013-02-10 12:32:00,46.0,39.0,30.23,North,0,0.0,1.0,76,0.00,,,-99.99,,2013-02-10 20:32:00,
2013-02-10 12:42:00,46.0,39.0,30.23,North,0,0.0,1.0,76,0.00,,,-99.99,,2013-02-10 20:42:00,
2013-02-10 12:52:00,46.0,39.0,30.23,North,0,0.0,1.0,76,0.00,,,-99.99,,2013-02-10 20:52:00,
2013-02-10 13:02:00,45.0,37.0,30.20,SW,230,2.0,2.0,73,0.00,,,-99.99,,2013-02-10 21:02:00,
2013-02-10 13:11:00,45.0,37.0,30.20,SW,230,2.0,2.0,73,0.00,,,-99.99,,2013-02-10 21:11:00,
2013-02-10 13:21:00,45.0,37.0,30.20,SW,230,2.0,2.0,73,0.00,,,-99.99,,2013-02-10 21:21:00,
2013-02-10 13:32:00,44.0,37.0,30.19,SW,220,5.0,6.0,77,0.00,,,-99.99,,2013-02-10 21:32:00,
2013-02-10 13:42:00,44.0,37.0,30.19,SW,220,5.0,6.0,77,0.00,,,-99.99,,2013-02-10 21:42:00,
2013-02-10 13:52:00,44.0,37.0,30.19,SW,220,5.0,6.0,77,0.00,,,-99.99,,2013-02-10 21:52:00,
2013-02-10 14:01:00,43.0,36.0,30.18,SW,220,2.0,6.0,77,0.00,,,-99.99,,2013-02-10 22:01:00,
2013-02-10 14:11:00,43.0,36.0,30.18,SW,220,2.0,6.0,77,0.00,,,-99.99,,2013-02-10 22:11:00,
2013-02-10 14:21:00,43.0,36.0,30.18,SW,220,2.0,6.0,77,0.00,,,-99.99,,2013-02-10 22:21:00,
2013-02-10 14:31:00,42.0,37.0,30.18,SW,220,2.0,3.0,81,0.00,,,-99.99,,2013-02-10 22:31:00,
2013-02-10 14:42:00,42.0,37.0,30.18,SW,220,2.0,3.0,81,0.00,,,-99.99,,2013-02-10 22:42:00,
2013-02-10 14:52:00,42.0,37.0,30.18,SW,220,2.0,3.0,81,0.00,,,-99.99,,2013-02-10 22:52:00,
2013-02-10 15:01:00,42.0,38.0,30.18,SW,220,4.0,5.0,84,0.00,,,-99.99,,2013-02-10 23:01:00,
2013-02-10 15:11:00,42.0,38.0,30.18,SW,220,4.0,5.0,84,0.00,,,-99.99,,2013-02-10 23:11:00,
2013-02-10 15:21:00,42.0,38.0,30.18,SW,220,4.0,5.0,84,0.00,,,-99.99,,2013-02-10 23:21:00,
2013-02-10 15:31:00,42.0,38.0,30.18,SW,220,3.0,5.0,85,0.00,,,-99.99,,2013-02-10 23:31:00,
2013-02-10 15:42:00,42.0,38.0,30.18,SW,220,3.0,5.0,85,0.00,,,-99.99,,2013-02-10 23:42:00,
2013-02-10 15:52:00,42.0,38.0,30.18,SW,220,3.0,5.0,85,0.00,,,-99.99,,2013-02-10 23:52:00,
2013-02-10 16:01:00,41.0,37.0,30.18,SW,220,2.0,3.0,85,0.00,,,-99.99,,2013-02-11 00:01:00,
2013-02-10 16:11:00,41.0,37.0,30.18,SW,220,2.0,3.0,85,0.00,,,-99.99,,2013-02-11 00:11:00,
2013-02-10 16:22:00,41.0,37.0,30.18,SW,220,2.0,3.0,85,0.00,,,-99.99,,2013-02-11 00:22:00,
2013-02-10 16:31:00,41.0,37.0,30.18,SW,220,3.0,4.0,85,0.00,,,-99.99,,2013-02-11 00:31:00,
2013-02-10 16:42:00,41.0,37.0,30.18,SW,220,3.0,4.0,85,0.00,,,-99.99,,2013-02-11 00:42:00,
2013-02-10 16:52:00,41.0,37.0,30.18,SW,220,3.0,4.0,85,0.00,,,-99.99,,2013-02-11 00:52:00,
2013-02-10 17:01:00,41.0,37.0,30.18,North,0,0.0,3.0,87,0.00,,,-99.99,,2013-02-11 01:01:00,
2013-02-10 17:11:00,41.0,37.0,30.18,North,0,0.0,3.0,87,0.00,,,-99.99,,2013-02-11 01:11:00,
2013-02-10 17:21:00,41.0,37.0,30.18,North,0,0.0,3.0,87,0.00,,,-99.99,,2013-02-11 01:21:00,
2013-02-10 17:31:00,41.0,38.0,30.20,North,-999,0.0,0.0,89,0.00,,,-99.99,,2013-02-11 01:31:00,
2013-02-10 18:01:00,41.0,38.0,30.20,North,-999,0.0,0.0,89,0.00,,,-99.99,,2013-02-11 02:01:00,
2013-02-10 18:11:00,41.0,38.0,30.20,North,-999,0.0,0.0,89,0.00,,,-99.99,,2013-02-11 02:11:00,
2013-02-10 18:21:00,41.0,38.0,30.20,North,-999,0.0,0.0,89,0.00,,,-99.99,,2013-02-11 02:21:00,
2013-02-10 19:01:00,40.0,37.0,30.21,North,0,0.0,3.0,90,0.00,,,-99.99,,2013-02-11 03:01:00,
2013-02-10 19:11:00,40.0,37.0,30.21,North,0,0.0,3.0,90,0.00,,,-99.99,,2013-02-11 03:11:00,
2013-02-10 19:21:00,40.0,37.0,30.21,North,0,0.0,3.0,90,0.00,,,-99.99,,2013-02-11 03:21:00,
2013-02-10 19:31:00,40.0,38.0,30.22,WNW,290,2.0,4.0,94,0.00,,,-99.99,,2013-02-11 03:31:00,
2013-02-10 19:42:00,40.0,38.0,30.22,WNW,290,2.0,4.0,94,0.00,,,-99.99,,2013-02-11 03:42:00,
2013-02-10 19:52:00,40.0,38.0,30.22,WNW,290,2.0,4.0,94,0.00,,,-99.99,,2013-02-11 03:52:00,
2013-02-10 20:01:00,40.0,38.0,30.22,North,-999,0.0,0.0,94,0.00,,,-99.99,,2013-02-11 04:01:00,
2013-02-10 20:11:00,40.0,38.0,30.22,North,-999,0.0,0.0,94,0.00,,,-99.99,,2013-02-11 04:11:00,
2013-02-10 20:21:00,40.0,38.0,30.22,North,-999,0.0,0.0,94,0.00,,,-99.99,,2013-02-11 04:21:00,